Time;durP1;ratioP1;P1;durP2;ratioP2;P2;SDS_P1;SDS_P2;PMS_P1;PMS_P2;Temp;Humidity;BMP_temperature;BMP_pressure;BME280_temperature;BME280_humidity;BME280_pressure;Samples;Min_cycle;Max_cycle;Signal;HPM_P1;HPM_P2
2022/07/30 00:01:39;;;;;;;;;;;25.70;58.10;;;;;;5086023;27;87985;-48
2022/07/30 00:04:05;;;;;;;;;;;25.70;58.00;;;;;;5083090;27;87784;-49
2022/07/30 00:06:31;;;;;;;;;;;25.70;58.00;;;;;;5082569;27;87105;-49
2022/07/30 00:08:57;;;;;;;;;;;25.70;58.00;;;;;;5083392;27;86978;-49
2022/07/30 00:11:24;;;;;;;;;;;25.70;58.00;;;;;;5082719;27;89555;-48
2022/07/30 00:13:50;;;;;;;;;;;25.70;58.10;;;;;;5083437;27;87091;-51
2022/07/30 00:16:15;;;;;;;;;;;25.60;57.90;;;;;;5083337;27;87544;-51
2022/07/30 00:18:41;;;;;;;;;;;25.60;58.00;;;;;;5083533;27;86947;-50
2022/07/30 00:21:06;;;;;;;;;;;25.60;58.00;;;;;;5086029;27;87201;-49
2022/07/30 00:23:32;;;;;;;;;;;25.60;58.00;;;;;;5082782;27;88130;-48
2022/07/30 00:25:58;;;;;;;;;;;25.70;58.00;;;;;;5082275;27;88074;-51
2022/07/30 00:28:23;;;;;;;;;;;25.60;58.00;;;;;;5083313;27;88394;-49
2022/07/30 00:30:49;;;;;;;;;;;25.60;58.00;;;;;;5083201;27;87893;-49
2022/07/30 00:33:14;;;;;;;;;;;25.50;58.60;;;;;;5083056;27;87097;-51
2022/07/30 00:35:40;;;;;;;;;;;25.50;57.90;;;;;;5083189;27;87502;-51
2022/07/30 00:38:05;;;;;;;;;;;25.50;57.90;;;;;;5082548;27;88191;-49
2022/07/30 00:40:30;;;;;;;;;;;25.50;57.90;;;;;;5083155;27;87221;-50
2022/07/30 00:42:56;;;;;;;;;;;25.50;57.90;;;;;;5086053;27;87305;-46
2022/07/30 00:45:22;;;;;;;;;;;25.50;57.90;;;;;;5083080;27;87138;-46
2022/07/30 00:47:47;;;;;;;;;;;25.50;57.90;;;;;;5083112;27;87324;-49
2022/07/30 00:50:13;;;;;;;;;;;25.50;58.00;;;;;;5083911;27;89128;-48
2022/07/30 00:52:39;;;;;;;;;;;25.50;58.00;;;;;;5086290;27;87010;-48
2022/07/30 00:55:06;;;;;;;;;;;25.40;57.90;;;;;;5086417;27;87491;-48
2022/07/30 00:57:32;;;;;;;;;;;25.40;57.90;;;;;;5086145;27;88121;-49
2022/07/30 00:59:57;;;;;;;;;;;25.40;57.90;;;;;;5086240;27;87023;-48
2022/07/30 01:02:23;;;;;;;;;;;25.40;57.80;;;;;;5086380;27;87405;-48
2022/07/30 01:04:48;;;;;;;;;;;25.40;57.90;;;;;;5088769;27;88074;-49
2022/07/30 01:07:14;;;;;;;;;;;25.40;57.80;;;;;;5086645;27;86700;-45
2022/07/30 01:09:39;;;;;;;;;;;25.40;58.50;;;;;;5085867;27;87905;-45
2022/07/30 01:12:06;;;;;;;;;;;25.30;57.80;;;;;;5086268;27;87104;-45
2022/07/30 01:14:35;;;;;;;;;;;25.30;57.80;;;;;;5085334;27;89056;-47
2022/07/30 01:17:01;;;;;;;;;;;25.30;57.90;;;;;;5085731;27;88333;-48
2022/07/30 01:22:24;;;;;;;;;;;25.30;57.80;;;;;;5083726;27;86914;-48
2022/07/30 01:25:02;;;;;;;;;;;25.30;57.80;;;;;;5085653;27;88093;-48
2022/07/30 01:27:29;;;;;;;;;;;25.30;57.80;;;;;;5088998;27;86988;-51
2022/07/30 01:29:56;;;;;;;;;;;25.30;57.90;;;;;;5085575;27;88131;-49
2022/07/30 01:32:22;;;;;;;;;;;25.20;57.80;;;;;;5086322;27;86411;-46
2022/07/30 01:34:49;;;;;;;;;;;25.20;57.80;;;;;;5085917;27;88088;-50
2022/07/30 01:37:15;;;;;;;;;;;25.20;57.90;;;;;;5085190;27;89374;-48
2022/07/30 01:39:41;;;;;;;;;;;25.20;57.80;;;;;;5085141;27;87636;-45
2022/07/30 01:42:08;;;;;;;;;;;25.20;57.80;;;;;;5085663;27;89165;-51
2022/07/30 01:44:33;;;;;;;;;;;25.20;57.70;;;;;;5085071;27;89472;-49
2022/07/30 01:47:00;;;;;;;;;;;25.20;57.80;;;;;;5085809;27;87129;-52
2022/07/30 01:49:27;;;;;;;;;;;25.20;57.80;;;;;;5088294;27;87373;-48
2022/07/30 01:51:53;;;;;;;;;;;25.10;57.70;;;;;;5085678;27;87208;-48
2022/07/30 01:54:20;;;;;;;;;;;25.10;57.70;;;;;;5085390;27;88729;-48
2022/07/30 01:56:47;;;;;;;;;;;25.10;57.70;;;;;;5085446;27;88740;-48
2022/07/30 01:59:15;;;;;;;;;;;25.10;57.70;;;;;;5085357;27;87117;-49
2022/07/30 02:01:40;;;;;;;;;;;25.10;57.70;;;;;;5084138;27;89290;-44
2022/07/30 02:04:06;;;;;;;;;;;25.10;57.70;;;;;;5084267;27;89220;-47
2022/07/30 02:06:36;;;;;;;;;;;25.10;57.70;;;;;;5084698;27;87128;-48
2022/07/30 02:09:03;;;;;;;;;;;25.10;57.70;;;;;;5085149;27;87894;-51
2022/07/30 02:14:18;;;;;;;;;;;25.00;57.60;;;;;;5085379;27;86921;-47
2022/07/30 02:16:48;;;;;;;;;;;25.00;57.60;;;;;;5085082;27;87975;-48
2022/07/30 02:19:14;;;;;;;;;;;25.00;57.70;;;;;;5085097;27;87248;-48
2022/07/30 02:21:43;;;;;;;;;;;25.00;57.70;;;;;;5085619;27;87495;-47
2022/07/30 02:24:11;;;;;;;;;;;25.00;57.70;;;;;;5084581;27;88284;-45
2022/07/30 02:26:37;;;;;;;;;;;25.00;57.70;;;;;;5084639;27;87060;-48
2022/07/30 02:29:05;;;;;;;;;;;25.00;57.70;;;;;;5084609;27;88087;-47
2022/07/30 02:31:31;;;;;;;;;;;24.90;57.70;;;;;;5087326;27;88359;-48
2022/07/30 02:33:58;;;;;;;;;;;24.90;57.70;;;;;;5085061;27;87480;-51
2022/07/30 02:36:24;;;;;;;;;;;24.90;57.60;;;;;;5082940;27;91127;-46
2022/07/30 02:38:51;;;;;;;;;;;24.90;57.70;;;;;;5084849;27;87115;-50
2022/07/30 02:41:17;;;;;;;;;;;24.90;57.70;;;;;;5084442;27;87461;-51
2022/07/30 02:43:43;;;;;;;;;;;24.80;57.60;;;;;;5084483;27;87713;-50
2022/07/30 02:46:10;;;;;;;;;;;24.80;57.60;;;;;;5085318;27;86381;-46
2022/07/30 02:48:37;;;;;;;;;;;24.80;57.60;;;;;;5084546;27;87101;-50
2022/07/30 02:51:04;;;;;;;;;;;24.80;57.70;;;;;;5084546;27;88070;-48
2022/07/30 02:53:29;;;;;;;;;;;24.80;57.70;;;;;;5087066;27;88194;-50
2022/07/30 02:55:55;;;;;;;;;;;24.80;57.60;;;;;;5084038;27;88174;-48
2022/07/30 02:58:22;;;;;;;;;;;24.80;57.60;;;;;;5084627;27;87061;-48
2022/07/30 03:00:49;;;;;;;;;;;24.70;57.60;;;;;;5084249;27;88801;-50
2022/07/30 03:03:15;;;;;;;;;;;24.70;57.70;;;;;;5083918;27;88180;-46
2022/07/30 03:05:41;;;;;;;;;;;24.70;57.70;;;;;;5084036;27;87167;-50
2022/07/30 03:08:07;;;;;;;;;;;24.70;57.60;;;;;;5084377;27;87495;-49
2022/07/30 03:10:33;;;;;;;;;;;24.70;57.70;;;;;;5084421;27;87217;-48
2022/07/30 03:12:59;;;;;;;;;;;24.70;57.70;;;;;;5083055;27;87109;-45
2022/07/30 03:15:27;;;;;;;;;;;24.70;57.60;;;;;;5086997;27;86860;-48
2022/07/30 03:17:53;;;;;;;;;;;24.60;57.60;;;;;;5083479;27;88114;-47
2022/07/30 03:20:22;;;;;;;;;;;24.60;57.60;;;;;;5084146;27;88302;-49
2022/07/30 03:22:52;;;;;;;;;;;24.60;57.60;;;;;;5083541;27;88327;-49
2022/07/30 03:25:20;;;;;;;;;;;24.60;57.50;;;;;;5084110;27;86968;-46
2022/07/30 03:27:46;;;;;;;;;;;24.60;57.60;;;;;;5084055;27;87389;-49
2022/07/30 03:30:12;;;;;;;;;;;24.60;57.60;;;;;;5083910;27;88151;-48
2022/07/30 03:32:38;;;;;;;;;;;24.60;57.60;;;;;;5084245;27;87022;-48
2022/07/30 03:35:05;;;;;;;;;;;24.50;57.50;;;;;;5084340;27;87255;-47
2022/07/30 03:37:31;;;;;;;;;;;24.50;57.50;;;;;;5086237;27;90047;-51
2022/07/30 03:39:57;;;;;;;;;;;24.50;57.60;;;;;;5083662;27;88947;-44
2022/07/30 03:42:23;;;;;;;;;;;24.50;57.50;;;;;;5082907;27;89126;-45
2022/07/30 03:44:49;;;;;;;;;;;24.50;57.50;;;;;;5083900;27;87148;-45
2022/07/30 03:47:15;;;;;;;;;;;24.50;57.50;;;;;;5083895;27;87093;-51
2022/07/30 03:49:41;;;;;;;;;;;24.50;57.60;;;;;;5083233;27;87871;-49
2022/07/30 03:52:07;;;;;;;;;;;24.40;57.50;;;;;;5083854;27;87151;-45
2022/07/30 03:54:33;;;;;;;;;;;24.40;57.50;;;;;;5083518;27;87402;-48
2022/07/30 03:57:00;;;;;;;;;;;24.40;57.50;;;;;;5083290;27;88133;-50
2022/07/30 03:59:26;;;;;;;;;;;24.40;57.50;;;;;;5086783;27;86249;-48
2022/07/30 04:01:51;;;;;;;;;;;24.40;57.50;;;;;;5082851;27;87523;-47
2022/07/30 04:04:17;;;;;;;;;;;24.40;57.50;;;;;;5083488;27;87277;-48
2022/07/30 04:06:42;;;;;;;;;;;24.40;57.50;;;;;;5082646;27;88923;-48
2022/07/30 04:09:11;;;;;;;;;;;24.40;57.50;;;;;;5082840;27;88179;-49
2022/07/30 04:11:37;;;;;;;;;;;24.30;57.50;;;;;;5083258;27;87043;-47
2022/07/30 04:14:02;;;;;;;;;;;24.30;57.50;;;;;;5083593;27;87460;-48
2022/07/30 04:16:28;;;;;;;;;;;24.30;57.50;;;;;;5083319;27;88014;-48
2022/07/30 04:18:55;;;;;;;;;;;24.30;57.50;;;;;;5083525;27;87168;-47
2022/07/30 04:21:21;;;;;;;;;;;24.30;57.50;;;;;;5085838;27;87524;-45
2022/07/30 04:23:48;;;;;;;;;;;24.30;57.60;;;;;;5083556;27;86536;-48
2022/07/30 04:26:14;;;;;;;;;;;24.30;57.70;;;;;;5086749;27;87207;-49
2022/07/30 04:28:40;;;;;;;;;;;24.30;57.60;;;;;;5086687;27;87946;-45
2022/07/30 04:31:05;;;;;;;;;;;24.20;57.60;;;;;;5086303;27;87999;-49
2022/07/30 04:33:31;;;;;;;;;;;24.20;57.60;;;;;;5086687;27;90280;-49
2022/07/30 04:35:56;;;;;;;;;;;24.20;57.60;;;;;;5086608;27;88024;-48
2022/07/30 04:38:22;;;;;;;;;;;24.20;57.60;;;;;;5086611;27;87628;-46
2022/07/30 04:40:48;;;;;;;;;;;24.20;57.60;;;;;;5089420;27;87370;-46
2022/07/30 04:43:13;;;;;;;;;;;24.20;57.70;;;;;;5086342;27;87060;-47
2022/07/30 04:45:39;;;;;;;;;;;24.20;57.60;;;;;;5086596;27;87469;-47
2022/07/30 04:48:05;;;;;;;;;;;24.10;57.60;;;;;;5086954;27;87405;-50
2022/07/30 04:50:32;;;;;;;;;;;24.20;57.60;;;;;;5086622;27;86931;-50
2022/07/30 04:52:58;;;;;;;;;;;24.20;57.70;;;;;;5086234;27;88924;-47
2022/07/30 04:55:24;;;;;;;;;;;24.10;57.70;;;;;;5085562;27;89460;-49
2022/07/30 04:57:51;;;;;;;;;;;24.10;57.70;;;;;;5086562;27;87192;-46
2022/07/30 05:00:17;;;;;;;;;;;24.10;57.70;;;;;;5084909;27;89413;-47
2022/07/30 05:02:43;;;;;;;;;;;24.10;57.70;;;;;;5088953;27;87985;-48
2022/07/30 05:05:13;;;;;;;;;;;24.10;57.70;;;;;;5085903;27;89098;-48
2022/07/30 05:07:38;;;;;;;;;;;24.10;57.70;;;;;;5085587;27;88274;-50
2022/07/30 05:10:06;;;;;;;;;;;24.10;57.70;;;;;;5086240;27;87143;-45
2022/07/30 05:12:37;;;;;;;;;;;24.10;57.70;;;;;;5086726;27;87446;-48
2022/07/30 05:15:06;;;;;;;;;;;24.10;57.70;;;;;;5086031;27;88004;-51
2022/07/30 05:17:32;;;;;;;;;;;24.10;57.60;;;;;;5085948;27;86843;-51
2022/07/30 05:19:58;;;;;;;;;;;24.00;57.70;;;;;;5085568;27;88171;-47
2022/07/30 05:22:26;;;;;;;;;;;24.10;57.80;;;;;;5085817;27;87883;-46
2022/07/30 05:24:52;;;;;;;;;;;24.10;57.80;;;;;;5088755;27;87145;-47
2022/07/30 05:27:19;;;;;;;;;;;24.10;57.70;;;;;;5085720;27;88187;-45
2022/07/30 05:29:45;;;;;;;;;;;24.10;57.80;;;;;;5085954;27;87117;-49
2022/07/30 05:32:10;;;;;;;;;;;24.10;57.80;;;;;;5085779;27;88952;-49
2022/07/30 05:34:36;;;;;;;;;;;24.00;57.80;;;;;;5085388;27;88099;-52
2022/07/30 05:37:01;;;;;;;;;;;24.00;57.80;;;;;;5085444;27;86405;-45
2022/07/30 05:39:27;;;;;;;;;;;24.10;57.90;;;;;;5085921;27;86892;-46
2022/07/30 05:41:53;;;;;;;;;;;24.10;57.80;;;;;;5085490;27;88154;-48
2022/07/30 05:44:19;;;;;;;;;;;24.10;57.90;;;;;;5085101;27;88103;-46
2022/07/30 05:46:44;;;;;;;;;;;24.00;57.90;;;;;;5088499;27;88764;-52
2022/07/30 05:49:10;;;;;;;;;;;24.10;58.10;;;;;;5085952;27;87109;-48
2022/07/30 05:51:36;;;;;;;;;;;24.00;58.00;;;;;;5085349;27;87405;-52
2022/07/30 05:54:01;;;;;;;;;;;24.00;58.70;;;;;;5085230;27;89448;-51
2022/07/30 05:56:27;;;;;;;;;;;24.00;58.10;;;;;;5085264;27;87004;-46
2022/07/30 05:58:52;;;;;;;;;;;24.00;58.00;;;;;;5085646;27;87551;-49
2022/07/30 06:01:18;;;;;;;;;;;24.00;58.00;;;;;;5085778;27;87351;-48
2022/07/30 06:03:43;;;;;;;;;;;24.00;58.20;;;;;;5084858;27;87107;-46
2022/07/30 06:06:09;;;;;;;;;;;24.10;58.10;;;;;;5085077;27;87459;-48
2022/07/30 06:08:34;;;;;;;;;;;24.10;58.10;;;;;;5087463;27;89084;-45
2022/07/30 06:11:00;;;;;;;;;;;24.00;58.10;;;;;;5085465;27;88586;-48
2022/07/30 06:13:25;;;;;;;;;;;24.00;58.10;;;;;;5085102;27;88109;-48
2022/07/30 06:15:51;;;;;;;;;;;24.00;58.20;;;;;;5085192;27;87107;-45
2022/07/30 06:18:16;;;;;;;;;;;24.00;58.20;;;;;;5085218;27;87230;-47
2022/07/30 06:20:42;;;;;;;;;;;24.00;58.30;;;;;;5084521;27;87184;-48
2022/07/30 06:23:07;;;;;;;;;;;24.00;58.30;;;;;;5085112;27;87102;-45
2022/07/30 06:25:33;;;;;;;;;;;24.00;58.30;;;;;;5085862;27;87289;-50
2022/07/30 06:27:58;;;;;;;;;;;24.10;58.30;;;;;;5084659;27;88130;-48
2022/07/30 06:30:24;;;;;;;;;;;24.10;58.40;;;;;;5087788;27;87119;-48
2022/07/30 06:32:49;;;;;;;;;;;24.00;58.40;;;;;;5083984;27;89354;-46
2022/07/30 06:35:15;;;;;;;;;;;24.10;58.20;;;;;;5084993;27;87153;-47
2022/07/30 06:37:41;;;;;;;;;;;24.10;58.50;;;;;;5084751;27;87483;-45
2022/07/30 06:40:07;;;;;;;;;;;24.10;58.50;;;;;;5084362;27;89711;-48
2022/07/30 06:42:33;;;;;;;;;;;24.10;58.50;;;;;;5084885;27;87210;-45
2022/07/30 06:44:59;;;;;;;;;;;24.10;58.40;;;;;;5084449;27;88800;-46
2022/07/30 06:47:28;;;;;;;;;;;24.10;58.50;;;;;;5084133;27;88153;-49
2022/07/30 06:49:54;;;;;;;;;;;24.00;58.40;;;;;;5087997;27;86383;-46
2022/07/30 06:52:19;;;;;;;;;;;24.10;58.50;;;;;;5084193;27;88204;-51
2022/07/30 06:54:47;;;;;;;;;;;24.10;58.60;;;;;;5084392;27;87168;-48
2022/07/30 06:57:12;;;;;;;;;;;24.10;58.50;;;;;;5084096;27;88029;-48
2022/07/30 06:59:38;;;;;;;;;;;24.10;59.20;;;;;;5084274;27;87705;-49
2022/07/30 07:02:03;;;;;;;;;;;24.10;58.60;;;;;;5084328;27;87053;-45
2022/07/30 07:04:30;;;;;;;;;;;24.00;58.60;;;;;;5084354;27;87473;-45
2022/07/30 07:06:56;;;;;;;;;;;24.10;58.70;;;;;;5083839;27;87176;-48
2022/07/30 07:09:22;;;;;;;;;;;24.10;58.60;;;;;;5084537;27;87130;-48
2022/07/30 07:11:47;;;;;;;;;;;24.10;58.50;;;;;;5086728;27;88491;-46
2022/07/30 07:14:13;;;;;;;;;;;24.10;58.50;;;;;;5084871;27;86477;-45
2022/07/30 07:16:38;;;;;;;;;;;24.10;58.50;;;;;;5084248;27;87197;-49
2022/07/30 07:19:04;;;;;;;;;;;24.10;58.60;;;;;;5083571;27;89635;-50
2022/07/30 07:21:29;;;;;;;;;;;24.10;58.60;;;;;;5083253;27;88165;-48
2022/07/30 07:23:55;;;;;;;;;;;24.00;58.60;;;;;;5084230;27;88469;-48
2022/07/30 07:26:20;;;;;;;;;;;24.10;58.60;;;;;;5083589;27;89307;-47
2022/07/30 07:28:46;;;;;;;;;;;24.10;58.70;;;;;;5084156;27;87153;-47
2022/07/30 07:31:11;;;;;;;;;;;24.10;58.60;;;;;;5084103;27;87347;-47
2022/07/30 07:33:39;;;;;;;;;;;24.10;58.70;;;;;;5086800;27;87916;-47
2022/07/30 07:36:05;;;;;;;;;;;24.10;58.60;;;;;;5083723;27;87104;-49
2022/07/30 07:38:31;;;;;;;;;;;24.10;58.70;;;;;;5084162;27;87116;-48
2022/07/30 07:40:57;;;;;;;;;;;24.10;58.50;;;;;;5083943;27;87357;-49
2022/07/30 07:43:24;;;;;;;;;;;24.10;58.60;;;;;;5083624;27;88791;-53
2022/07/30 07:45:49;;;;;;;;;;;24.10;58.80;;;;;;5082710;27;88984;-48
2022/07/30 07:48:16;;;;;;;;;;;24.10;58.60;;;;;;5083434;27;87053;-50
2022/07/30 07:50:41;;;;;;;;;;;24.20;58.60;;;;;;5083943;27;88374;-45
2022/07/30 07:53:07;;;;;;;;;;;24.20;58.70;;;;;;5083573;27;88231;-46
2022/07/30 07:55:33;;;;;;;;;;;24.10;58.70;;;;;;5086561;27;87118;-50
2022/07/30 07:57:58;;;;;;;;;;;24.10;58.70;;;;;;5083414;27;87894;-47
2022/07/30 08:00:24;;;;;;;;;;;24.20;58.80;;;;;;5082961;27;87122;-48
2022/07/30 08:02:50;;;;;;;;;;;24.20;58.60;;;;;;5084008;27;87438;-46
2022/07/30 08:05:16;;;;;;;;;;;24.20;58.70;;;;;;5082756;27;87954;-52
2022/07/30 08:07:42;;;;;;;;;;;24.20;58.80;;;;;;5083941;27;86965;-49
2022/07/30 08:10:08;;;;;;;;;;;24.20;58.60;;;;;;5082983;27;88085;-51
2022/07/30 08:12:34;;;;;;;;;;;24.20;59.30;;;;;;5082904;27;88108;-50
2022/07/30 08:14:59;;;;;;;;;;;24.20;58.60;;;;;;5083109;27;87048;-53
2022/07/30 08:17:25;;;;;;;;;;;24.20;58.60;;;;;;5086152;27;87387;-49
2022/07/30 08:19:50;;;;;;;;;;;24.20;58.50;;;;;;5083095;27;87139;-45
2022/07/30 08:22:16;;;;;;;;;;;24.20;58.50;;;;;;5083004;27;87585;-48
2022/07/30 08:24:42;;;;;;;;;;;24.20;58.60;;;;;;5083156;27;87113;-45
2022/07/30 08:27:07;;;;;;;;;;;24.20;58.60;;;;;;5083377;27;86292;-45
2022/07/30 08:29:33;;;;;;;;;;;24.20;58.50;;;;;;5083045;27;87033;-47
2022/07/30 08:31:59;;;;;;;;;;;24.30;58.50;;;;;;5082750;27;88083;-46
2022/07/30 08:34:24;;;;;;;;;;;24.30;58.60;;;;;;5082384;27;88062;-49
2022/07/30 08:36:50;;;;;;;;;;;24.30;58.50;;;;;;5085883;27;88340;-49
2022/07/30 08:39:15;;;;;;;;;;;24.30;58.60;;;;;;5083101;27;87147;-48
2022/07/30 08:41:41;;;;;;;;;;;24.30;58.40;;;;;;5083367;27;87465;-51
2022/07/30 08:44:09;;;;;;;;;;;24.30;58.50;;;;;;5082504;27;89391;-45
2022/07/30 08:46:35;;;;;;;;;;;24.30;58.40;;;;;;5082954;27;86926;-50
2022/07/30 08:49:01;;;;;;;;;;;24.30;58.40;;;;;;5083076;27;88222;-46
2022/07/30 08:51:27;;;;;;;;;;;24.30;58.30;;;;;;5082604;27;88630;-50
2022/07/30 08:53:52;;;;;;;;;;;24.30;58.40;;;;;;5083140;27;87102;-50
2022/07/30 08:56:18;;;;;;;;;;;24.30;58.30;;;;;;5082889;27;87399;-48
2022/07/30 08:58:44;;;;;;;;;;;24.30;58.40;;;;;;5084847;27;90487;-46
2022/07/30 09:01:10;;;;;;;;;;;24.30;58.30;;;;;;5082612;27;89094;-49
2022/07/30 09:03:36;;;;;;;;;;;24.40;58.30;;;;;;5082177;27;89152;-49
2022/07/30 09:06:03;;;;;;;;;;;24.40;58.40;;;;;;5081715;27;87067;-50
2022/07/30 09:08:29;;;;;;;;;;;24.40;58.40;;;;;;5082720;27;87372;-50
2022/07/30 09:10:54;;;;;;;;;;;24.40;58.50;;;;;;5083793;27;88319;-50
2022/07/30 09:13:23;;;;;;;;;;;24.40;58.50;;;;;;5086438;27;87049;-48
2022/07/30 09:15:49;;;;;;;;;;;24.40;58.50;;;;;;5086326;27;88900;-47
2022/07/30 09:18:24;;;;;;;;;;;24.50;58.50;;;;;;5085938;27;87113;-49
2022/07/30 09:20:50;;;;;;;;;;;24.50;58.50;;;;;;5089104;27;87142;-48
2022/07/30 09:23:16;;;;;;;;;;;24.50;58.50;;;;;;5085083;27;89173;-50
2022/07/30 09:25:43;;;;;;;;;;;24.50;58.50;;;;;;5085807;27;87109;-49
2022/07/30 09:28:09;;;;;;;;;;;24.50;58.50;;;;;;5085851;27;88785;-49
2022/07/30 09:30:49;;;;;;;;;;;24.50;58.40;;;;;;5085330;27;89171;-48
2022/07/30 09:33:29;;;;;;;;;;;24.50;58.30;;;;;;5085652;27;87265;-47
2022/07/30 09:35:55;;;;;;;;;;;24.50;58.40;;;;;;5085734;27;87793;-48
2022/07/30 09:38:22;;;;;;;;;;;24.60;58.40;;;;;;5085339;27;88056;-49
2022/07/30 09:40:56;;;;;;;;;;;24.60;58.40;;;;;;5086347;27;86402;-48
2022/07/30 09:43:21;;;;;;;;;;;24.60;58.50;;;;;;5088615;27;86948;-49
2022/07/30 09:45:56;;;;;;;;;;;24.60;58.40;;;;;;5085797;27;87122;-48
2022/07/30 09:48:22;;;;;;;;;;;24.60;58.50;;;;;;5084815;27;88865;-46
2022/07/30 09:50:48;;;;;;;;;;;24.70;58.50;;;;;;5085219;27;89130;-45
2022/07/30 09:53:14;;;;;;;;;;;24.70;58.40;;;;;;5085738;27;86986;-48
2022/07/30 09:55:40;;;;;;;;;;;24.80;58.80;;;;;;5085772;27;86929;-48
2022/07/30 09:58:05;;;;;;;;;;;24.80;58.50;;;;;;5085145;27;88045;-46
2022/07/30 10:00:33;;;;;;;;;;;24.80;58.50;;;;;;5085449;27;87116;-50
2022/07/30 10:02:59;;;;;;;;;;;24.80;58.50;;;;;;5085304;27;88770;-47
2022/07/30 10:05:25;;;;;;;;;;;24.80;58.50;;;;;;5088138;27;87070;-46
2022/07/30 10:07:51;;;;;;;;;;;24.80;58.50;;;;;;5085514;27;86989;-47
2022/07/30 10:10:18;;;;;;;;;;;24.80;58.50;;;;;;5084944;27;88412;-48
2022/07/30 10:12:44;;;;;;;;;;;24.80;58.50;;;;;;5084510;27;87983;-48
2022/07/30 10:15:10;;;;;;;;;;;24.90;58.50;;;;;;5085400;27;88421;-47
2022/07/30 10:17:37;;;;;;;;;;;24.90;58.60;;;;;;5085003;27;87158;-48
2022/07/30 10:20:04;;;;;;;;;;;24.90;58.50;;;;;;5084853;27;87097;-51
2022/07/30 10:22:30;;;;;;;;;;;25.00;58.60;;;;;;5084431;27;88842;-49
2022/07/30 10:24:55;;;;;;;;;;;25.00;58.80;;;;;;5084623;27;88319;-51
2022/07/30 10:27:21;;;;;;;;;;;25.00;58.60;;;;;;5087837;27;87014;-48
2022/07/30 10:29:46;;;;;;;;;;;25.00;58.60;;;;;;5085247;27;87373;-52
2022/07/30 10:32:12;;;;;;;;;;;25.00;58.60;;;;;;5084967;27;87085;-48
2022/07/30 10:34:38;;;;;;;;;;;25.00;58.60;;;;;;5084981;27;87483;-48
2022/07/30 10:37:04;;;;;;;;;;;25.00;58.60;;;;;;5083959;27;89037;-49
2022/07/30 10:39:33;;;;;;;;;;;25.00;58.60;;;;;;5084732;27;87143;-52
2022/07/30 10:42:09;;;;;;;;;;;25.00;58.60;;;;;;5084589;27;86995;-46
2022/07/30 10:44:44;;;;;;;;;;;25.00;58.60;;;;;;5082813;27;89979;-46
2022/07/30 10:47:13;;;;;;;;;;;25.00;58.60;;;;;;5087948;27;87220;-49
2022/07/30 10:49:39;;;;;;;;;;;25.00;58.60;;;;;;5084492;27;87274;-45
2022/07/30 10:52:04;;;;;;;;;;;25.10;58.70;;;;;;5084594;27;87125;-46
2022/07/30 10:54:33;;;;;;;;;;;25.10;58.50;;;;;;5085174;27;87491;-49
2022/07/30 10:57:06;;;;;;;;;;;25.20;58.50;;;;;;5083941;27;89162;-50
2022/07/30 10:59:50;;;;;;;;;;;25.20;58.50;;;;;;5084323;27;87097;-49
2022/07/30 11:02:16;;;;;;;;;;;25.20;58.50;;;;;;5084073;27;88084;-46
2022/07/30 11:04:42;;;;;;;;;;;25.20;58.50;;;;;;5083178;27;88099;-54
2022/07/30 11:19:23;;;;;;;;;;;25.40;58.80;;;;;;5127402;27;80224;-53
2022/07/30 11:22:11;;;;;;;;;;;25.70;60.50;;;;;;5126190;27;80100;-47
2022/07/30 11:24:41;;;;;;;;;;;25.80;60.70;;;;;;5114752;27;80644;-47
2022/07/30 11:27:07;;;;;;;;;;;25.90;60.30;;;;;;5126118;27;81296;-45
2022/07/30 11:29:37;;;;;;;;;;;25.90;60.20;;;;;;5126211;27;80403;-43
2022/07/30 11:32:21;;;;;;;;;;;26.10;61.10;;;;;;5126078;27;82282;-51
2022/07/30 11:34:47;;;;;;;;;;;26.20;59.40;;;;;;5126044;27;81579;-44
2022/07/30 11:37:16;;;;;;;;;;;26.10;60.20;;;;;;5126208;27;80618;-45
2022/07/30 11:39:54;;;;;;;;;;;26.10;58.80;;;;;;5128278;27;82295;-54
2022/07/30 11:42:26;;;;;;;;;;;26.10;59.60;;;;;;5125927;27;80324;-51
2022/07/30 11:44:52;;;;;;;;;;;26.10;58.90;;;;;;5126218;27;80590;-45
2022/07/30 11:47:18;;;;;;;;;;;26.20;56.70;;;;;;5125477;27;80709;-45
2022/07/30 11:49:47;;;;;;;;;;;26.30;57.00;;;;;;5126104;27;80348;-50
2022/07/30 11:52:21;;;;;;;;;;;26.30;57.00;;;;;;5125980;27;80317;-47
2022/07/30 11:54:53;;;;;;;;;;;26.30;60.20;;;;;;5125835;27;81205;-48
2022/07/30 11:57:18;;;;;;;;;;;26.30;59.80;;;;;;5125544;27;80394;-41
2022/07/30 11:59:54;;;;;;;;;;;26.40;59.20;;;;;;5125753;27;80748;-44
2022/07/30 12:02:25;;;;;;;;;;;26.30;58.90;;;;;;5128279;27;81233;-43
2022/07/30 12:04:50;;;;;;;;;;;26.30;58.40;;;;;;5125673;27;80090;-46
2022/07/30 12:07:20;;;;;;;;;;;26.40;58.30;;;;;;5124881;27;80332;-46
2022/07/30 12:09:46;;;;;;;;;;;26.40;58.40;;;;;;5125518;27;80312;-44
2022/07/30 12:12:23;;;;;;;;;;;26.40;59.60;;;;;;5125008;27;81367;-43
2022/07/30 12:14:48;;;;;;;;;;;26.40;60.30;;;;;;5125252;27;81779;-43
2022/07/30 12:17:14;;;;;;;;;;;26.50;59.80;;;;;;5125350;27;80431;-42
2022/07/30 12:19:46;;;;;;;;;;;26.50;59.00;;;;;;5115486;27;80247;-41
2022/07/30 12:22:11;;;;;;;;;;;26.50;59.20;;;;;;5111492;27;81196;-42
2022/07/30 12:24:37;;;;;;;;;;;26.50;58.80;;;;;;5107606;27;80169;-50
2022/07/30 12:27:06;;;;;;;;;;;26.60;58.20;;;;;;5090102;27;83003;-45
2022/07/30 12:29:33;;;;;;;;;;;26.60;57.20;;;;;;5090659;27;80909;-47
2022/07/30 12:31:59;;;;;;;;;;;26.60;58.40;;;;;;5090781;27;80594;-50
2022/07/30 12:34:25;;;;;;;;;;;26.80;58.10;;;;;;5090543;27;81254;-46
2022/07/30 12:36:51;;;;;;;;;;;26.80;56.40;;;;;;5090591;27;80288;-45
2022/07/30 12:51:04;;;;;;;;;;;26.80;56.10;;;;;;5106439;27;80115;-51
2022/07/30 12:53:30;;;;;;;;;;;27.00;55.60;;;;;;5105169;27;80286;-46
2022/07/30 12:56:08;;;;;;;;;;;26.90;56.00;;;;;;5105318;27;80709;-45
2022/07/30 12:58:37;;;;;;;;;;;26.90;56.30;;;;;;5105248;27;80549;-43
2022/07/30 13:01:02;;;;;;;;;;;26.90;56.30;;;;;;5103789;27;80238;-49
2022/07/30 13:03:37;;;;;;;;;;;26.90;56.40;;;;;;5102989;27;80624;-50
2022/07/30 13:06:10;;;;;;;;;;;26.90;57.30;;;;;;5102629;27;83002;-43
2022/07/30 13:08:49;;;;;;;;;;;27.00;57.00;;;;;;5102837;27;80314;-47
2022/07/30 13:11:16;;;;;;;;;;;27.00;57.00;;;;;;5105825;27;81115;-46
2022/07/30 13:13:42;;;;;;;;;;;27.00;57.10;;;;;;5102671;27;81560;-46
2022/07/30 13:16:07;;;;;;;;;;;27.00;57.10;;;;;;5103639;27;81318;-47
2022/07/30 13:18:34;;;;;;;;;;;27.00;57.10;;;;;;5104863;27;80378;-44
2022/07/30 13:21:00;;;;;;;;;;;27.00;57.20;;;;;;5104740;27;80351;-50
2022/07/30 13:23:26;;;;;;;;;;;27.10;57.30;;;;;;5104733;27;81306;-47
2022/07/30 13:25:52;;;;;;;;;;;27.10;57.30;;;;;;5104205;27;81516;-43
2022/07/30 13:28:18;;;;;;;;;;;27.10;57.30;;;;;;5104809;27;80260;-48
2022/07/30 13:30:43;;;;;;;;;;;27.10;57.40;;;;;;5104591;27;81645;-47
2022/07/30 13:33:09;;;;;;;;;;;27.10;57.30;;;;;;5107505;27;81256;-47
2022/07/30 13:35:34;;;;;;;;;;;27.10;57.40;;;;;;5104721;27;80752;-43
2022/07/30 13:38:00;;;;;;;;;;;27.10;57.50;;;;;;5103910;27;81226;-47
2022/07/30 13:40:26;;;;;;;;;;;27.20;57.50;;;;;;5104368;27;80664;-46
2022/07/30 13:42:52;;;;;;;;;;;27.10;57.50;;;;;;5104488;27;80819;-46
2022/07/30 13:45:17;;;;;;;;;;;27.10;57.50;;;;;;5103817;27;81130;-46
2022/07/30 13:47:43;;;;;;;;;;;27.10;57.50;;;;;;5103906;27;80411;-47
2022/07/30 13:50:08;;;;;;;;;;;27.20;57.50;;;;;;5100386;27;82528;-48
2022/07/30 13:52:34;;;;;;;;;;;27.20;57.60;;;;;;5089759;27;82821;-51
2022/07/30 13:54:59;;;;;;;;;;;27.20;57.60;;;;;;5092886;27;80380;-47
2022/07/30 13:57:25;;;;;;;;;;;27.20;57.60;;;;;;5090043;27;83359;-48
2022/07/30 13:59:51;;;;;;;;;;;27.20;57.60;;;;;;5090083;27;80413;-47
2022/07/30 14:02:16;;;;;;;;;;;27.20;57.60;;;;;;5089989;27;82485;-45
2022/07/30 14:04:42;;;;;;;;;;;27.30;57.70;;;;;;5089499;27;82945;-46
2022/07/30 14:07:08;;;;;;;;;;;27.30;57.70;;;;;;5085409;27;80298;-45
2022/07/30 14:09:33;;;;;;;;;;;27.30;57.70;;;;;;5069355;27;82485;-45
2022/07/30 14:11:59;;;;;;;;;;;27.30;58.30;;;;;;5069196;27;82583;-47
2022/07/30 14:14:24;;;;;;;;;;;27.30;58.80;;;;;;5068986;27;80245;-45
2022/07/30 14:16:51;;;;;;;;;;;27.30;58.40;;;;;;5071651;27;82574;-58
2022/07/30 14:19:16;;;;;;;;;;;27.40;57.90;;;;;;5068771;27;80343;-47
2022/07/30 14:21:42;;;;;;;;;;;27.40;58.80;;;;;;5068654;27;82413;-44
2022/07/30 14:24:10;;;;;;;;;;;27.50;58.00;;;;;;5069045;27;82074;-44
2022/07/30 14:26:36;;;;;;;;;;;27.50;56.70;;;;;;5069090;27;80375;-46
2022/07/30 14:29:02;;;;;;;;;;;27.50;56.60;;;;;;5068801;27;82100;-46
2022/07/30 14:31:27;;;;;;;;;;;27.50;57.20;;;;;;5068857;27;81332;-43
2022/07/30 14:33:53;;;;;;;;;;;27.60;57.00;;;;;;5068887;27;80666;-45
2022/07/30 14:36:18;;;;;;;;;;;27.60;56.80;;;;;;5069106;27;80820;-45
2022/07/30 14:38:44;;;;;;;;;;;27.60;57.00;;;;;;5071541;27;81386;-45
2022/07/30 14:41:09;;;;;;;;;;;27.60;57.10;;;;;;5069281;27;80681;-45
2022/07/30 14:43:35;;;;;;;;;;;27.60;57.20;;;;;;5069301;27;81420;-46